createdAt,value
2019-03-03T00:01:30.368Z,34.60
2019-03-03T00:04:36.256Z,34.50
2019-03-03T00:07:42.113Z,34.50
2019-03-03T00:10:48.189Z,34.50
2019-03-03T00:13:54.240Z,34.40
2019-03-03T00:17:02.618Z,34.30
2019-03-03T00:20:08.924Z,34.30
2019-03-03T00:23:14.772Z,34.40
2019-03-03T00:26:20.696Z,34.30
2019-03-03T00:29:26.708Z,34.40
2019-03-03T00:32:32.413Z,34.30
2019-03-03T00:35:38.272Z,34.30
2019-03-03T00:39:03.283Z,34.20
2019-03-03T00:42:23.588Z,34.20
2019-03-03T00:45:49.863Z,34.20
2019-03-03T00:49:14.859Z,34.20
2019-03-03T00:52:40.961Z,34.10
2019-03-03T00:56:11.940Z,34.20
2019-03-03T00:59:36.655Z,34.30
2019-03-03T01:03:01.355Z,34.40
2019-03-03T01:06:16.085Z,34.40
2019-03-03T01:09:36.024Z,34.30
2019-03-03T01:13:09.920Z,34.40
2019-03-03T01:16:52.989Z,34.50
2019-03-03T01:20:17.553Z,34.50
2019-03-03T01:23:57.252Z,34.60
2019-03-03T01:27:03.220Z,34.60
2019-03-03T01:30:11.731Z,34.60
2019-03-03T01:33:17.840Z,34.70
2019-03-03T01:36:23.545Z,34.70
2019-03-03T01:39:29.507Z,34.90
2019-03-03T01:42:35.173Z,35.00
2019-03-03T01:45:41.019Z,35.00
2019-03-03T01:48:47.019Z,35.20
2019-03-03T01:51:53.659Z,35.20
2019-03-03T01:54:59.512Z,35.30
2019-03-03T01:58:05.575Z,35.30
2019-03-03T02:01:11.537Z,35.40
2019-03-03T02:04:17.541Z,35.50
2019-03-03T02:07:23.356Z,35.60
2019-03-03T02:10:30.450Z,35.70
2019-03-03T02:13:36.441Z,35.80
2019-03-03T02:16:42.359Z,35.70
2019-03-03T02:19:48.148Z,35.60
2019-03-03T02:22:53.963Z,35.60
2019-03-03T02:30:35.611Z,35.60
2019-03-03T02:33:40.990Z,35.70
2019-03-03T02:36:46.386Z,35.80
2019-03-03T02:39:51.830Z,35.90
2019-03-03T02:42:57.209Z,36.00
2019-03-03T02:46:02.696Z,36.00
2019-03-03T02:49:08.142Z,36.90
2019-03-03T02:52:13.551Z,36.20
2019-03-03T02:55:20.779Z,36.20
2019-03-03T02:58:26.285Z,36.40
2019-03-03T03:01:39.464Z,36.40
2019-03-03T03:04:44.882Z,36.40
2019-03-03T03:16:54.571Z,36.50
2019-03-03T03:20:13.280Z,36.60
2019-03-03T03:23:56.280Z,36.70
2019-03-03T03:27:11.095Z,36.70
2019-03-03T03:30:44.787Z,36.90
2019-03-03T03:33:58.072Z,36.70
2019-03-03T03:37:25.340Z,36.70
2019-03-03T03:40:50.068Z,36.90
2019-03-03T03:44:20.606Z,37.50
2019-03-03T03:48:00.297Z,36.90
2019-03-03T03:51:20.382Z,36.90
2019-03-03T03:54:47.023Z,37.00
2019-03-03T03:58:11.560Z,37.00
2019-03-03T04:01:45.147Z,37.20
2019-03-03T04:05:09.696Z,37.20
2019-03-03T04:08:26.939Z,37.60
2019-03-03T04:11:51.483Z,37.60
2019-03-03T04:15:11.262Z,37.60
2019-03-03T04:18:35.768Z,37.70
2019-03-03T04:22:15.763Z,37.60
2019-03-03T04:25:31.707Z,37.60
2019-03-03T04:28:48.078Z,37.50
2019-03-03T04:32:11.202Z,38.30
2019-03-03T04:35:51.122Z,37.50
2019-03-03T04:39:18.398Z,37.50
2019-03-03T04:42:49.921Z,37.50
2019-03-03T04:46:18.019Z,37.40
2019-03-03T04:49:44.105Z,37.40
2019-03-03T04:53:00.861Z,37.50
2019-03-03T04:56:26.245Z,37.50
2019-03-03T05:00:04.582Z,37.50
2019-03-03T05:03:20.961Z,37.60
2019-03-03T05:06:32.421Z,37.60
2019-03-03T05:09:52.508Z,37.50
2019-03-03T05:13:07.513Z,37.60
2019-03-03T05:16:35.233Z,37.50
2019-03-03T05:19:46.946Z,37.50
2019-03-03T05:22:52.366Z,37.70
2019-03-03T05:25:57.813Z,37.50
2019-03-03T05:29:03.264Z,37.60
2019-03-03T05:32:11.569Z,37.60
2019-03-03T05:35:18.448Z,37.60
2019-03-03T05:38:23.832Z,37.60
2019-03-03T05:41:31.119Z,37.60
2019-03-03T05:44:37.506Z,37.70
2019-03-03T05:47:42.915Z,37.70
2019-03-03T05:50:48.317Z,37.60
2019-03-03T05:53:53.776Z,37.80
2019-03-03T05:56:59.283Z,37.70
2019-03-03T06:00:06.338Z,37.70
2019-03-03T06:03:14.038Z,38.00
2019-03-03T06:06:21.213Z,37.70
2019-03-03T06:09:30.205Z,37.70
2019-03-03T06:12:37.485Z,37.70
2019-03-03T06:15:43.869Z,37.70
2019-03-03T06:18:50.542Z,37.60
2019-03-03T06:21:55.921Z,37.50
2019-03-03T06:25:01.306Z,37.60
2019-03-03T06:28:09.749Z,37.60
2019-03-03T06:31:15.133Z,37.60
2019-03-03T06:34:20.645Z,37.70
2019-03-03T06:37:26.027Z,37.60
2019-03-03T06:40:32.981Z,37.60
2019-03-03T06:43:39.860Z,37.60
2019-03-03T06:46:46.813Z,37.60
2019-03-03T06:49:52.225Z,37.70
2019-03-03T06:52:58.717Z,37.70
2019-03-03T06:56:05.205Z,37.60
2019-03-03T06:59:11.662Z,37.50
2019-03-03T07:02:17.413Z,37.50
2019-03-03T07:05:22.839Z,37.50
2019-03-03T07:08:31.894Z,37.50
2019-03-03T07:11:37.284Z,37.50
2019-03-03T07:14:43.774Z,37.60
2019-03-03T07:17:51.002Z,37.60
2019-03-03T07:20:56.405Z,37.60
2019-03-03T07:24:03.997Z,37.60
2019-03-03T07:27:11.962Z,37.70
2019-03-03T07:30:17.454Z,37.60
2019-03-03T07:33:27.974Z,37.60
2019-03-03T07:36:34.565Z,37.70
2019-03-03T07:39:41.068Z,37.70
2019-03-03T07:42:49.209Z,37.60
2019-03-03T07:45:54.670Z,37.60
2019-03-03T07:49:01.518Z,37.70
2019-03-03T07:52:08.370Z,37.70
2019-03-03T07:55:14.163Z,37.70
2019-03-03T07:58:20.652Z,37.80
2019-03-03T08:01:27.058Z,37.70
2019-03-03T08:04:32.557Z,37.80
2019-03-03T08:07:39.738Z,37.80
2019-03-03T08:10:49.004Z,37.70
2019-03-03T08:13:54.381Z,37.80
2019-03-03T08:17:00.933Z,38.20
2019-03-03T08:20:08.576Z,38.30
2019-03-03T08:23:15.033Z,37.80
2019-03-03T08:26:20.469Z,37.90
2019-03-03T08:29:25.846Z,37.80
2019-03-03T08:32:31.289Z,38.00
2019-03-03T08:35:38.209Z,37.80
2019-03-03T08:38:46.652Z,37.90
2019-03-03T08:41:58.982Z,37.80
2019-03-03T08:45:22.363Z,37.90
2019-03-03T08:48:46.725Z,38.20
2019-03-03T08:52:15.344Z,38.10
2019-03-03T08:55:30.314Z,38.20
2019-03-03T08:58:43.629Z,38.20
2019-03-03T09:02:15.590Z,38.10
2019-03-03T09:05:28.854Z,38.00
2019-03-03T09:08:53.261Z,50.20
2019-03-03T09:12:24.107Z,76.30
2019-03-03T09:15:43.361Z,59.40
2019-03-03T09:19:24.517Z,45.40
2019-03-03T09:23:04.181Z,42.80
2019-03-03T09:26:27.335Z,43.70
2019-03-03T09:29:51.201Z,46.40
2019-03-03T09:33:19.449Z,49.30
2019-03-03T09:36:49.861Z,66.10
2019-03-03T09:40:29.317Z,59.40
2019-03-03T09:43:53.902Z,46.00
2019-03-03T09:47:32.142Z,43.20
2019-03-03T09:51:05.329Z,42.70
2019-03-03T09:54:29.489Z,42.30
2019-03-03T09:57:53.821Z,42.10
2019-03-03T10:01:19.477Z,42.00
2019-03-03T10:05:02.149Z,42.00
2019-03-03T10:08:41.506Z,42.00
2019-03-03T10:12:05.933Z,42.10
2019-03-03T10:15:20.705Z,43.10
2019-03-03T10:18:32.833Z,43.10
2019-03-03T10:21:57.241Z,43.50
2019-03-03T10:25:14.521Z,43.70
2019-03-03T10:28:48.333Z,43.80
2019-03-03T10:32:21.004Z,43.90
2019-03-03T10:35:43.056Z,44.00
2019-03-03T10:39:06.673Z,44.00
2019-03-03T10:42:23.074Z,43.80
2019-03-03T10:45:44.664Z,43.60
2019-03-03T10:49:04.782Z,43.50
2019-03-03T10:52:28.297Z,43.40
2019-03-03T10:55:48.526Z,43.80
2019-03-03T10:59:05.886Z,42.60
2019-03-03T11:02:36.665Z,42.50
2019-03-03T11:06:06.034Z,42.50
2019-03-03T11:09:43.437Z,42.60
2019-03-03T11:13:08.273Z,42.60
2019-03-03T11:16:39.042Z,42.70
2019-03-03T11:20:05.173Z,44.30
2019-03-03T11:23:47.069Z,52.80
2019-03-03T11:27:09.581Z,59.40
2019-03-03T11:30:45.077Z,61.30
2019-03-03T11:34:25.809Z,62.30
2019-03-03T11:37:39.800Z,61.70
2019-03-03T11:40:54.875Z,59.90
2019-03-03T11:44:09.370Z,59.40
2019-03-03T11:47:41.135Z,58.40
2019-03-03T11:50:57.814Z,57.00
2019-03-03T11:54:12.782Z,56.10
2019-03-03T11:57:30.040Z,55.80
2019-03-03T12:00:45.078Z,55.60
2019-03-03T12:04:09.479Z,55.40
2019-03-03T12:07:35.653Z,55.10
2019-03-03T12:10:52.526Z,54.90
2019-03-03T12:14:27.534Z,54.60
2019-03-03T12:17:48.102Z,54.60
2019-03-03T12:21:12.078Z,54.60
2019-03-03T12:24:39.241Z,53.90
2019-03-03T12:28:24.850Z,53.50
2019-03-03T12:31:53.089Z,53.50
2019-03-03T12:35:12.557Z,53.00
2019-03-03T12:38:32.877Z,53.00
2019-03-03T12:41:59.182Z,52.70
2019-03-03T12:45:26.689Z,52.60
2019-03-03T12:48:49.701Z,52.30
2019-03-03T12:52:20.922Z,52.20
2019-03-03T12:55:44.961Z,52.10
2019-03-03T12:58:59.718Z,51.80
2019-03-03T13:02:30.824Z,50.90
2019-03-03T13:05:58.468Z,51.50
2019-03-03T13:09:31.022Z,51.20
2019-03-03T13:12:46.949Z,50.50
2019-03-03T13:16:14.297Z,50.50
2019-03-03T13:19:49.057Z,50.50
2019-03-03T13:23:16.201Z,50.70
2019-03-03T13:26:29.025Z,50.50
2019-03-03T13:29:52.470Z,50.60
2019-03-03T13:33:26.015Z,50.50
2019-03-03T13:37:00.544Z,50.50
2019-03-03T13:40:17.561Z,50.60
2019-03-03T13:43:23.045Z,50.50
2019-03-03T13:46:28.532Z,50.30
2019-03-03T13:49:35.189Z,50.10
2019-03-03T13:52:41.777Z,50.10
2019-03-03T13:55:47.185Z,50.00
2019-03-03T13:58:54.505Z,50.00
2019-03-03T14:02:01.053Z,49.90
2019-03-03T14:05:07.042Z,49.80
2019-03-03T14:08:12.422Z,49.60
2019-03-03T14:11:26.916Z,49.60
2019-03-03T14:14:32.326Z,49.60
2019-03-03T14:17:37.705Z,49.40
2019-03-03T14:20:43.154Z,49.40
2019-03-03T14:23:49.512Z,49.30
2019-03-03T14:26:55.113Z,49.30
2019-03-03T14:30:00.625Z,49.10
2019-03-03T14:33:08.645Z,49.00
2019-03-03T14:36:14.214Z,49.00
2019-03-03T14:39:19.636Z,48.90
2019-03-03T14:42:25.122Z,48.80
2019-03-03T14:45:30.739Z,48.70
2019-03-03T14:48:36.329Z,48.10
2019-03-03T14:51:44.281Z,48.50
2019-03-03T14:54:51.029Z,49.20
2019-03-03T14:57:56.453Z,48.50
2019-03-03T15:01:04.505Z,48.40
2019-03-03T15:04:10.110Z,48.20
2019-03-03T15:07:16.733Z,48.20
2019-03-03T15:10:23.613Z,47.10
2019-03-03T15:13:28.998Z,43.70
2019-03-03T15:16:34.630Z,42.60
2019-03-03T15:19:41.293Z,43.50
2019-03-03T15:22:49.086Z,45.90
2019-03-03T15:25:54.638Z,45.80
2019-03-03T15:29:01.885Z,45.90
2019-03-03T15:32:10.179Z,46.40
2019-03-03T15:35:17.116Z,46.40
2019-03-03T15:38:23.603Z,46.50
2019-03-03T15:41:29.183Z,46.60
2019-03-03T15:44:34.666Z,46.60
2019-03-03T15:47:40.150Z,46.70
2019-03-03T15:50:45.874Z,47.00
2019-03-03T15:53:53.081Z,47.10
2019-03-03T15:56:58.501Z,47.20
2019-03-03T16:00:07.006Z,47.20
2019-03-03T16:03:12.569Z,47.30
2019-03-03T16:06:19.114Z,47.30
2019-03-03T16:09:25.809Z,47.30
2019-03-03T16:12:33.013Z,47.20
2019-03-03T16:15:39.433Z,47.10
2019-03-03T16:18:46.001Z,46.90
2019-03-03T16:21:52.565Z,47.10
2019-03-03T16:24:58.942Z,47.00
2019-03-03T16:28:06.133Z,46.90
2019-03-03T16:31:11.622Z,46.90
2019-03-03T16:34:18.826Z,47.00
2019-03-03T16:37:26.145Z,46.80
2019-03-03T16:40:39.348Z,46.80
2019-03-03T16:43:40.503Z,46.80
2019-03-03T16:46:47.105Z,46.80
2019-03-03T16:49:52.526Z,47.30
2019-03-03T16:53:01.100Z,46.70
2019-03-03T16:56:07.691Z,46.60
2019-03-03T16:59:13.166Z,46.50
2019-03-03T17:02:18.689Z,46.40
2019-03-03T17:05:25.762Z,46.90
2019-03-03T17:08:31.281Z,46.30
2019-03-03T17:11:36.793Z,46.20
2019-03-03T17:14:43.326Z,46.10
2019-03-03T17:17:50.545Z,46.10
2019-03-03T17:20:57.752Z,46.00
2019-03-03T17:24:05.145Z,45.90
2019-03-03T17:27:12.390Z,45.80
2019-03-03T17:30:20.533Z,46.00
2019-03-03T17:33:26.061Z,45.80
2019-03-03T17:36:31.497Z,45.70
2019-03-03T17:39:36.917Z,45.70
2019-03-03T17:42:42.434Z,45.40
2019-03-03T17:45:47.949Z,45.40
2019-03-03T17:48:53.465Z,45.40
2019-03-03T17:52:00.689Z,45.30
2019-03-03T17:55:08.066Z,45.20
2019-03-03T17:58:13.568Z,45.10
2019-03-03T18:01:21.854Z,45.10
2019-03-03T18:04:27.433Z,45.00
2019-03-03T18:07:34.060Z,44.90
2019-03-03T18:10:39.518Z,44.90
2019-03-03T18:13:45.064Z,44.90
2019-03-03T18:16:51.589Z,44.90
2019-03-03T18:19:58.465Z,44.80
2019-03-03T18:23:03.877Z,44.80
2019-03-03T18:26:09.321Z,44.60
2019-03-03T18:29:14.701Z,44.50
2019-03-03T18:32:21.221Z,44.50
2019-03-03T18:35:28.406Z,44.50
2019-03-03T18:38:35.322Z,44.40
2019-03-03T18:41:41.814Z,44.40
2019-03-03T18:44:47.199Z,44.40
2019-03-03T18:47:56.214Z,44.30
2019-03-03T18:51:01.705Z,44.30
2019-03-03T18:54:08.557Z,44.30
2019-03-03T18:57:15.109Z,44.20
2019-03-03T19:00:23.370Z,44.10
2019-03-03T19:03:30.807Z,44.10
2019-03-03T19:06:36.238Z,44.10
2019-03-03T19:09:41.773Z,44.00
2019-03-03T19:12:47.213Z,43.90
2019-03-03T19:15:52.809Z,43.90
2019-03-03T19:18:58.293Z,43.80
2019-03-03T19:22:03.666Z,43.80
2019-03-03T19:25:10.641Z,43.80
2019-03-03T19:28:17.193Z,43.80
2019-03-03T19:31:23.942Z,43.60
2019-03-03T19:34:29.355Z,43.60
2019-03-03T19:37:35.910Z,43.50
2019-03-03T19:40:43.968Z,43.50
2019-03-03T19:43:49.450Z,43.40
2019-03-03T19:46:56.098Z,43.40
2019-03-03T19:50:01.531Z,43.30
2019-03-03T19:53:07.453Z,43.30
2019-03-03T19:56:13.975Z,43.20
2019-03-03T19:59:21.158Z,43.20
2019-03-03T20:02:27.546Z,43.10
2019-03-03T20:05:32.934Z,43.10
2019-03-03T20:08:39.462Z,43.00
2019-03-03T20:11:47.891Z,43.00
2019-03-03T20:14:53.449Z,43.60
2019-03-03T20:17:58.770Z,43.00
2019-03-03T20:21:04.240Z,43.00
2019-03-03T20:24:09.630Z,43.00
2019-03-03T20:27:16.210Z,42.90
2019-03-03T20:30:23.040Z,42.60
2019-03-03T20:33:28.561Z,42.10
2019-03-03T20:36:34.114Z,42.20
2019-03-03T20:39:39.633Z,42.30
2019-03-03T20:42:47.618Z,42.30
2019-03-03T20:45:54.966Z,42.40
2019-03-03T20:49:01.473Z,42.30
2019-03-03T20:52:08.917Z,42.40
2019-03-03T20:55:16.925Z,42.50
2019-03-03T20:58:22.302Z,42.60
2019-03-03T21:01:27.702Z,42.50
2019-03-03T21:04:36.017Z,42.30
2019-03-03T21:07:50.857Z,42.20
2019-03-03T21:10:52.237Z,42.20
2019-03-03T21:13:57.685Z,42.50
2019-03-03T21:17:05.974Z,42.30
2019-03-03T21:20:14.029Z,42.20
2019-03-03T21:23:19.450Z,42.10
2019-03-03T21:26:25.334Z,42.10
2019-03-03T21:29:31.949Z,42.00
2019-03-03T21:32:39.801Z,42.00
2019-03-03T21:35:46.295Z,42.00
2019-03-03T21:38:51.713Z,42.00
2019-03-03T21:41:58.601Z,41.90
2019-03-03T21:45:04.277Z,41.80
2019-03-03T21:48:11.746Z,41.90
2019-03-03T21:51:19.961Z,41.70
2019-03-03T21:54:26.398Z,42.00
2019-03-03T21:57:32.793Z,41.60
2019-03-03T22:00:41.950Z,41.60
2019-03-03T22:03:48.497Z,41.70
2019-03-03T22:06:53.905Z,42.00
2019-03-03T22:10:01.193Z,41.70
2019-03-03T22:13:11.643Z,41.90
2019-03-03T22:16:17.090Z,41.90
2019-03-03T22:19:22.475Z,42.00
2019-03-03T22:22:29.105Z,42.00
2019-03-03T22:25:34.565Z,42.10
2019-03-03T22:28:39.974Z,42.20
2019-03-03T22:31:45.386Z,42.20
2019-03-03T22:34:54.042Z,40.30
2019-03-03T22:38:00.621Z,38.30
2019-03-03T22:41:08.250Z,38.20
2019-03-03T22:49:07.097Z,39.50
2019-03-03T22:52:12.562Z,40.10
2019-03-03T22:55:18.494Z,40.20
2019-03-03T22:58:24.001Z,40.30
2019-03-03T23:01:49.129Z,40.50
2019-03-03T23:05:25.046Z,40.60
2019-03-03T23:08:41.533Z,40.80
2019-03-03T23:12:16.942Z,41.00
2019-03-03T23:16:12.801Z,41.00
2019-03-03T23:20:01.336Z,41.10
2019-03-03T23:23:44.990Z,41.10
2019-03-03T23:26:50.508Z,41.20
2019-03-03T23:29:56.044Z,41.30
2019-03-03T23:33:01.533Z,40.80
2019-03-03T23:36:07.157Z,41.20
2019-03-03T23:39:14.523Z,41.40
2019-03-03T23:42:21.022Z,41.40
2019-03-03T23:45:26.478Z,41.40
2019-03-03T23:48:31.863Z,41.30
2019-03-03T23:51:38.802Z,41.40
2019-03-03T23:54:45.998Z,41.30
2019-03-03T23:57:52.496Z,41.30
